Time;durP1;ratioP1;P1;durP2;ratioP2;P2;SDS_P1;SDS_P2;PMS_P1;PMS_P2;Temp;Humidity;BMP_temperature;BMP_pressure;BME280_temperature;BME280_humidity;BME280_pressure;Samples;Min_cycle;Max_cycle;Signal;HPM_P1;HPM_P2
2021/09/11 00:00:28;;;;;;;4.45;2.17;;;;;;;20.40;100.00;100692.88;5003370;28;20030;-68
2021/09/11 00:02:54;;;;;;;3.75;2.10;;;;;;;20.37;100.00;100694.47;4985845;28;20045;-68
2021/09/11 00:05:21;;;;;;;8.05;2.53;;;;;;;20.35;100.00;100688.66;5008581;28;20030;-68
2021/09/11 00:07:47;;;;;;;3.95;2.15;;;;;;;20.38;100.00;100681.59;4994552;28;20052;-68
2021/09/11 00:10:13;;;;;;;4.00;2.25;;;;;;;20.32;100.00;100688.72;4990437;28;20474;-68
2021/09/11 00:12:39;;;;;;;3.90;2.05;;;;;;;20.35;100.00;100685.13;4994866;28;20048;-68
2021/09/11 00:15:12;;;;;;;3.72;2.00;;;;;;;20.35;100.00;100685.91;5008244;28;20045;-68
2021/09/11 00:17:38;;;;;;;4.25;1.92;;;;;;;20.34;100.00;100676.16;5000229;28;20034;-67
2021/09/11 00:20:05;;;;;;;4.07;2.05;;;;;;;20.34;100.00;100687.09;5003497;28;20027;-68
2021/09/11 00:22:30;;;;;;;4.68;2.53;;;;;;;20.36;100.00;100683.97;4985952;28;20774;-68
2021/09/11 00:24:56;;;;;;;4.82;2.53;;;;;;;20.36;100.00;100681.22;4999884;28;20168;-69
2021/09/11 00:27:21;;;;;;;5.78;2.47;;;;;;;20.31;100.00;100687.16;5007768;28;20375;-67
2021/09/11 00:29:47;;;;;;;5.63;2.88;;;;;;;20.35;100.00;100687.88;5006857;28;20026;-68
2021/09/11 00:32:12;;;;;;;6.93;3.05;;;;;;;20.33;100.00;100691.03;4998330;28;20025;-68
2021/09/11 00:34:38;;;;;;;6.57;2.70;;;;;;;20.30;100.00;100691.91;5005132;28;20034;-68
2021/09/11 00:37:03;;;;;;;6.50;2.97;;;;;;;20.32;100.00;100694.19;5005333;28;20046;-68
2021/09/11 00:39:29;;;;;;;4.72;2.75;;;;;;;20.29;100.00;100695.03;5007384;28;20034;-68
2021/09/11 00:41:54;;;;;;;5.55;3.03;;;;;;;20.27;100.00;100705.63;5003854;28;20037;-68
2021/09/11 00:44:20;;;;;;;5.05;3.28;;;;;;;20.28;100.00;100696.22;5006427;28;20045;-69
2021/09/11 00:46:46;;;;;;;6.97;3.22;;;;;;;20.27;100.00;100698.19;5004201;28;20129;-68
2021/09/11 00:49:12;;;;;;;7.05;3.30;;;;;;;20.26;100.00;100695.88;5004908;28;20045;-68
2021/09/11 00:51:38;;;;;;;5.70;2.70;;;;;;;20.25;100.00;100706.03;5002992;28;20072;-67
2021/09/11 00:54:04;;;;;;;8.98;3.05;;;;;;;20.27;100.00;100702.88;5006741;28;20486;-67
2021/09/11 00:56:30;;;;;;;7.60;3.47;;;;;;;20.29;100.00;100701.28;4992352;28;20581;-68
2021/09/11 00:58:56;;;;;;;6.43;3.05;;;;;;;20.27;100.00;100705.63;5006746;28;20485;-67
2021/09/11 01:01:22;;;;;;;7.22;3.63;;;;;;;20.26;100.00;100690.41;4989655;28;20021;-68
2021/09/11 01:03:48;;;;;;;9.60;3.75;;;;;;;20.23;100.00;100697.47;4995198;28;20053;-68
2021/09/11 01:06:13;;;;;;;5.50;3.17;;;;;;;20.21;100.00;100694.38;5001780;28;20034;-68
2021/09/11 01:08:41;;;;;;;7.63;3.38;;;;;;;20.21;100.00;100690.91;5000516;28;20036;-69
2021/09/11 01:11:07;;;;;;;6.80;3.38;;;;;;;20.14;100.00;100689.03;4987255;28;20021;-68
2021/09/11 01:13:33;;;;;;;6.53;3.42;;;;;;;20.15;100.00;100696.03;5006595;28;20042;-67
2021/09/11 01:15:59;;;;;;;6.47;3.17;;;;;;;20.11;100.00;100700.03;5010156;28;20109;-69
2021/09/11 01:18:26;;;;;;;7.32;3.22;;;;;;;20.14;100.00;100693.72;5004539;28;20546;-69
2021/09/11 01:20:53;;;;;;;6.07;3.13;;;;;;;20.13;100.00;100689.44;5000382;28;20434;-68
2021/09/11 01:23:18;;;;;;;6.10;2.92;;;;;;;20.11;100.00;100697.31;4979068;28;20454;-68
2021/09/11 01:25:45;;;;;;;6.80;3.25;;;;;;;20.10;100.00;100696.53;5001725;28;20165;-68
2021/09/11 01:28:11;;;;;;;7.55;3.50;;;;;;;20.08;100.00;100690.69;5001378;28;20062;-68
2021/09/11 01:30:36;;;;;;;5.95;3.03;;;;;;;20.10;100.00;100684.81;4993942;28;20080;-68
2021/09/11 01:33:02;;;;;;;7.55;2.88;;;;;;;20.07;100.00;100689.16;4993642;28;20132;-68
2021/09/11 01:35:27;;;;;;;3.95;2.55;;;;;;;20.04;100.00;100679.03;5006341;28;20048;-68
2021/09/11 01:37:53;;;;;;;10.20;3.00;;;;;;;20.03;100.00;100688.44;5002496;28;20387;-68
2021/09/11 01:40:18;;;;;;;6.00;3.50;;;;;;;20.06;100.00;100703.22;5006962;28;20033;-68
2021/09/11 01:42:44;;;;;;;6.32;3.10;;;;;;;20.09;100.00;100694.97;5007564;28;20159;-68
2021/09/11 01:45:13;;;;;;;4.43;2.67;;;;;;;20.10;100.00;100701.22;5009459;28;20029;-68
2021/09/11 01:47:39;;;;;;;6.70;3.10;;;;;;;20.05;100.00;100705.22;5009045;28;20022;-68
2021/09/11 01:50:07;;;;;;;11.15;3.78;;;;;;;20.09;100.00;100718.81;5012735;28;20117;-68
2021/09/11 01:52:33;;;;;;;7.88;2.90;;;;;;;20.12;100.00;100728.91;5012404;28;20794;-68
2021/09/11 01:54:58;;;;;;;5.82;2.92;;;;;;;20.12;100.00;100728.91;5011000;28;20105;-68
2021/09/11 01:57:24;;;;;;;5.47;3.20;;;;;;;20.14;100.00;100726.53;4995035;28;20398;-68
2021/09/11 01:59:49;;;;;;;6.57;3.28;;;;;;;20.16;100.00;100726.91;5008354;28;20413;-69
2021/09/11 02:02:15;;;;;;;6.82;3.33;;;;;;;20.16;100.00;100724.94;5009573;28;20034;-68
2021/09/11 02:04:40;;;;;;;7.55;3.50;;;;;;;20.16;100.00;100718.69;5008276;28;20042;-68
2021/09/11 02:07:07;;;;;;;7.60;3.22;;;;;;;20.16;100.00;100730.41;5010726;28;20037;-69
2021/09/11 02:09:35;;;;;;;5.85;3.53;;;;;;;20.17;100.00;100731.19;5008235;28;20041;-68
2021/09/11 02:12:01;;;;;;;9.70;4.57;;;;;;;20.11;100.00;100725.41;5004636;28;20034;-68
2021/09/11 02:14:27;;;;;;;7.97;4.05;;;;;;;20.12;100.00;100717.97;5005480;28;20033;-68
2021/09/11 02:16:52;;;;;;;10.80;3.63;;;;;;;20.12;100.00;100715.25;4995579;28;20042;-68
2021/09/11 02:19:18;;;;;;;9.30;4.32;;;;;;;20.12;100.00;100726.97;5000574;28;20049;-68
2021/09/11 02:21:43;;;;;;;13.07;4.15;;;;;;;20.11;100.00;100730.13;4998786;28;20034;-68
2021/09/11 02:24:09;;;;;;;10.98;4.85;;;;;;;20.12;100.00;100726.19;5005093;28;20030;-68
2021/09/11 02:26:35;;;;;;;8.55;4.32;;;;;;;20.09;100.00;100729.75;5009608;28;20478;-68
2021/09/11 02:29:02;;;;;;;10.95;4.70;;;;;;;20.07;100.00;100730.19;5011346;28;20121;-68
2021/09/11 02:31:28;;;;;;;9.63;4.38;;;;;;;20.05;100.00;100726.31;5006385;28;20402;-68
2021/09/11 02:33:53;;;;;;;8.27;4.07;;;;;;;20.12;100.00;100724.22;5007540;28;20048;-68
2021/09/11 02:36:19;;;;;;;9.75;4.20;;;;;;;20.04;100.00;100722.81;5001763;28;20105;-68
2021/09/11 02:38:45;;;;;;;9.85;4.38;;;;;;;20.02;100.00;100729.88;4999165;28;20042;-68
2021/09/11 02:41:10;;;;;;;10.50;4.22;;;;;;;20.03;100.00;100728.69;5005853;28;20073;-68
2021/09/11 02:43:36;;;;;;;7.97;4.13;;;;;;;19.99;100.00;100730.72;4989363;28;20113;-68
2021/09/11 02:46:02;;;;;;;9.40;4.40;;;;;;;19.96;100.00;100728.78;5007685;28;20163;-68
2021/09/11 02:48:27;;;;;;;10.98;4.65;;;;;;;19.98;100.00;100723.69;5008563;28;20042;-68
2021/09/11 02:50:52;;;;;;;7.97;3.75;;;;;;;19.95;100.00;100730.78;5011664;28;20018;-68
2021/09/11 02:53:18;;;;;;;7.50;3.90;;;;;;;19.91;100.00;100721.09;5008257;28;20046;-68
2021/09/11 02:55:44;;;;;;;10.75;4.43;;;;;;;19.88;100.00;100719.94;5010394;28;20037;-68
2021/09/11 02:58:09;;;;;;;10.77;4.57;;;;;;;19.91;100.00;100724.59;5004646;28;20023;-68
2021/09/11 03:00:35;;;;;;;10.40;4.97;;;;;;;19.89;100.00;100740.63;4994559;28;20057;-68
2021/09/11 03:03:00;;;;;;;11.02;4.63;;;;;;;19.83;100.00;100727.84;5003015;28;20042;-68
2021/09/11 03:05:26;;;;;;;9.75;4.50;;;;;;;19.90;100.00;100738.69;5009949;28;20033;-69
2021/09/11 03:07:52;;;;;;;10.95;4.93;;;;;;;19.93;100.00;100726.91;5009152;28;20490;-68
2021/09/11 03:10:17;;;;;;;14.63;5.40;;;;;;;19.94;100.00;100734.69;5006169;28;20021;-68
2021/09/11 03:12:42;;;;;;;10.27;4.75;;;;;;;19.95;100.00;100736.25;5007323;28;20057;-68
2021/09/11 03:15:09;;;;;;;10.23;4.63;;;;;;;19.89;100.00;100728.91;5000550;28;20459;-68
2021/09/11 03:17:34;;;;;;;13.27;5.18;;;;;;;19.97;100.00;100733.09;5008025;28;20045;-68
2021/09/11 03:20:00;;;;;;;12.40;5.07;;;;;;;19.98;100.00;100740.09;5001878;28;20042;-68
2021/09/11 03:22:26;;;;;;;11.82;4.65;;;;;;;19.95;100.00;100732.72;5005307;28;20076;-68
2021/09/11 03:24:51;;;;;;;11.20;5.25;;;;;;;19.97;100.00;100742.06;5002935;28;20082;-68
2021/09/11 03:27:17;;;;;;;11.65;4.93;;;;;;;20.00;100.00;100734.97;5009916;28;20030;-68
2021/09/11 03:29:42;;;;;;;11.63;5.18;;;;;;;20.02;100.00;100724.41;4994109;28;20402;-69
2021/09/11 03:32:08;;;;;;;11.70;5.03;;;;;;;20.00;100.00;100727.56;5007924;28;20048;-68
2021/09/11 03:34:33;;;;;;;16.08;5.93;;;;;;;19.99;100.00;100738.91;5003699;28;20026;-68
2021/09/11 03:36:59;;;;;;;13.88;5.53;;;;;;;20.06;100.00;100730.59;5003056;28;20092;-68
2021/09/11 03:39:25;;;;;;;15.07;5.80;;;;;;;20.07;100.00;100737.59;5002173;28;20398;-68
2021/09/11 03:41:50;;;;;;;17.70;6.32;;;;;;;20.01;100.00;100728.34;5004317;28;20065;-68
2021/09/11 03:44:16;;;;;;;15.38;5.78;;;;;;;20.04;100.00;100722.81;5001891;28;20506;-68
2021/09/11 03:46:41;;;;;;;14.52;5.72;;;;;;;20.04;100.00;100728.28;5007395;28;20047;-68
2021/09/11 03:49:07;;;;;;;16.67;5.63;;;;;;;20.02;100.00;100732.59;5010068;28;20060;-68
2021/09/11 03:51:34;;;;;;;16.77;6.32;;;;;;;20.04;100.00;100727.50;4988892;28;20101;-68
2021/09/11 03:54:00;;;;;;;16.38;6.57;;;;;;;20.08;100.00;100736.41;5011127;28;20553;-68
2021/09/11 03:56:26;;;;;;;21.88;7.05;;;;;;;20.07;100.00;100743.88;5005993;28;20116;-68
2021/09/11 03:58:51;;;;;;;19.85;6.47;;;;;;;20.00;100.00;100738.50;5010131;28;20079;-68
2021/09/11 04:01:17;;;;;;;21.17;7.03;;;;;;;20.01;100.00;100740.06;5002504;28;20049;-68
2021/09/11 04:03:42;;;;;;;20.83;7.72;;;;;;;20.00;100.00;100738.50;5007889;28;20030;-68
2021/09/11 04:08:41;;;;;;;21.23;7.43;;;;;;;19.99;100.00;100741.66;4992274;28;20449;-68
2021/09/11 04:11:07;;;;;;;21.98;7.55;;;;;;;19.96;100.00;100737.78;5003184;28;20104;-68
2021/09/11 04:13:36;;;;;;;23.98;7.03;;;;;;;19.95;100.00;100743.66;5010671;28;20040;-68
2021/09/11 04:16:01;;;;;;;20.75;7.10;;;;;;;19.92;100.00;100741.78;5010710;28;20041;-68
2021/09/11 04:18:27;;;;;;;23.35;6.88;;;;;;;19.92;100.00;100747.25;4987557;28;20022;-68
2021/09/11 04:20:52;;;;;;;23.10;7.55;;;;;;;19.94;100.00;100745.63;4990904;28;20030;-68
2021/09/11 04:23:18;;;;;;;20.73;7.25;;;;;;;19.89;100.00;100740.63;4972654;28;20034;-67
2021/09/11 04:25:44;;;;;;;22.13;7.65;;;;;;;19.96;100.00;100742.47;4990196;28;20578;-68
2021/09/11 04:28:10;;;;;;;21.98;7.40;;;;;;;19.93;100.00;100746.03;4985957;28;20113;-67
2021/09/11 04:30:35;;;;;;;23.83;7.65;;;;;;;19.95;100.00;100738.19;4981896;28;20101;-68
2021/09/11 04:33:01;;;;;;;20.67;7.35;;;;;;;19.95;100.00;100743.66;4987060;28;20057;-69
2021/09/11 04:35:26;;;;;;;22.27;7.47;;;;;;;19.97;100.00;100747.53;4989042;28;20034;-68
2021/09/11 04:37:52;;;;;;;23.95;7.35;;;;;;;19.99;100.00;100752.59;4987651;28;20038;-70
2021/09/11 04:40:17;;;;;;;25.73;7.93;;;;;;;19.95;100.00;100749.91;4982155;28;20081;-68
2021/09/11 04:42:43;;;;;;;24.15;7.60;;;;;;;19.97;100.00;100750.28;4979513;28;20046;-69
2021/09/11 04:45:09;;;;;;;28.02;7.30;;;;;;;19.97;100.00;100752.22;4990232;28;20097;-68
2021/09/11 04:47:34;;;;;;;26.92;7.93;;;;;;;19.98;100.00;100754.53;4989988;28;21310;-68
2021/09/11 04:49:59;;;;;;;22.08;7.45;;;;;;;19.94;100.00;100750.34;4990129;28;20064;-68
2021/09/11 04:52:25;;;;;;;17.63;6.00;;;;;;;19.93;100.00;100748.78;4972595;28;20125;-67
2021/09/11 04:54:50;;;;;;;23.42;6.93;;;;;;;19.94;100.00;100753.06;4993388;28;20110;-67
2021/09/11 04:57:16;;;;;;;17.63;7.03;;;;;;;19.93;100.00;100756.97;4987545;28;20038;-68
2021/09/11 04:59:41;;;;;;;25.55;7.00;;;;;;;19.93;100.00;100756.97;4989189;28;20042;-67
2021/09/11 05:02:07;;;;;;;24.10;7.47;;;;;;;19.97;100.00;100755.75;4982741;28;20034;-67
2021/09/11 05:04:32;;;;;;;21.42;6.70;;;;;;;19.91;100.00;100759.34;4979491;28;20117;-68
2021/09/11 05:06:59;;;;;;;26.80;7.00;;;;;;;19.95;100.00;100760.84;4986996;28;20034;-69
2021/09/11 05:09:24;;;;;;;18.05;6.55;;;;;;;19.92;100.00;100756.19;4965544;28;20029;-69
2021/09/11 05:11:50;;;;;;;20.70;7.30;;;;;;;19.94;100.00;100758.53;4989986;28;20030;-68
2021/09/11 05:14:16;;;;;;;18.13;6.32;;;;;;;19.91;100.00;100756.63;4983139;28;20113;-69
2021/09/11 05:16:41;;;;;;;23.15;7.00;;;;;;;19.94;100.00;100758.53;4986235;28;20426;-68
2021/09/11 05:19:06;;;;;;;19.13;6.57;;;;;;;19.92;100.00;100763.66;4994434;28;20084;-68
2021/09/11 05:21:32;;;;;;;22.25;6.43;;;;;;;19.92;100.00;100764.41;4993149;28;20066;-68
2021/09/11 05:23:58;;;;;;;18.25;6.10;;;;;;;19.93;100.00;100759.72;4990741;28;20030;-68
2021/09/11 05:26:24;;;;;;;17.55;6.07;;;;;;;19.90;100.00;100761.31;4982230;28;20465;-68
2021/09/11 05:28:50;;;;;;;22.00;6.78;;;;;;;19.92;100.00;100756.19;4991348;28;20039;-68
2021/09/11 05:31:15;;;;;;;20.05;5.47;;;;;;;19.93;100.00;100748.78;4976115;28;20038;-68
2021/09/11 05:33:41;;;;;;;23.70;6.93;;;;;;;19.95;100.00;100769.06;4993967;28;20041;-69
2021/09/11 05:36:06;;;;;;;23.17;6.38;;;;;;;19.96;100.00;100762.38;4993774;28;20081;-67
2021/09/11 05:38:32;;;;;;;21.00;6.20;;;;;;;19.96;100.00;100769.81;4992200;28;20030;-68
2021/09/11 05:40:57;;;;;;;17.25;6.20;;;;;;;19.96;100.00;100769.81;4983490;28;20507;-68
2021/09/11 05:43:24;;;;;;;19.35;6.30;;;;;;;20.08;100.00;100771.97;4994197;28;20022;-68
2021/09/11 05:45:49;;;;;;;22.52;7.32;;;;;;;20.05;100.00;100770.84;4993238;28;20566;-68
2021/09/11 05:48:15;;;;;;;26.85;6.47;;;;;;;20.02;100.00;100765.41;4987853;28;20101;-67
2021/09/11 05:50:41;;;;;;;21.23;6.50;;;;;;;20.03;100.00;100766.97;4992215;28;20046;-68
2021/09/11 05:53:06;;;;;;;20.58;6.80;;;;;;;19.98;100.00;100770.16;4991937;28;20061;-68
2021/09/11 05:55:32;;;;;;;16.70;6.35;;;;;;;20.02;100.00;100768.16;4963237;28;20154;-70
2021/09/11 05:57:57;;;;;;;20.17;6.90;;;;;;;19.98;100.00;100768.22;4992538;28;20077;-67
2021/09/11 06:00:23;;;;;;;22.40;6.90;;;;;;;20.01;100.00;100780.28;4994368;28;20035;-67
2021/09/11 06:02:48;;;;;;;24.98;7.72;;;;;;;20.03;100.00;100777.91;4992593;28;20030;-68
2021/09/11 06:05:14;;;;;;;19.92;6.65;;;;;;;20.01;100.00;100781.06;4988141;28;20041;-68
2021/09/11 06:07:40;;;;;;;19.63;6.72;;;;;;;19.99;100.00;100782.66;4990365;28;20034;-68
2021/09/11 06:10:06;;;;;;;21.27;6.93;;;;;;;19.96;100.00;100784.25;4992578;28;20034;-69
2021/09/11 06:12:31;;;;;;;22.45;7.47;;;;;;;20.00;100.00;100786.94;4986707;28;20041;-68
2021/09/11 06:14:57;;;;;;;16.70;6.45;;;;;;;20.01;100.00;100796.69;4990523;28;20034;-68
2021/09/11 06:17:22;;;;;;;23.48;7.28;;;;;;;20.05;100.00;100786.47;4991411;28;20461;-68
2021/09/11 06:19:47;;;;;;;19.08;7.30;;;;;;;20.04;100.00;100788.44;4973604;28;20076;-67
2021/09/11 06:22:13;;;;;;;24.23;8.13;;;;;;;20.08;100.00;100791.88;4986767;28;20302;-68
2021/09/11 06:24:40;;;;;;;22.08;7.20;;;;;;;20.09;100.00;100787.94;4992811;28;20360;-67
2021/09/11 06:27:06;;;;;;;18.42;7.10;;;;;;;20.12;100.00;100786.34;4986930;28;20026;-69
2021/09/11 06:29:32;;;;;;;22.50;7.32;;;;;;;20.12;100.00;100791.81;4971282;28;20030;-68
2021/09/11 06:31:58;;;;;;;25.15;7.40;;;;;;;20.11;100.00;100790.28;4988364;28;20399;-67
2021/09/11 06:34:23;;;;;;;17.77;6.68;;;;;;;20.10;100.00;100797.72;4976432;28;20109;-67
2021/09/11 06:36:49;;;;;;;24.90;7.80;;;;;;;20.13;100.00;100790.66;4992410;28;20042;-67
2021/09/11 06:39:14;;;;;;;20.67;6.72;;;;;;;20.13;100.00;100796.13;4988248;28;20026;-67
2021/09/11 06:41:40;;;;;;;23.25;7.60;;;;;;;20.15;100.00;100794.50;4972310;28;20126;-70
2021/09/11 06:44:05;;;;;;;20.42;6.70;;;;;;;20.15;100.00;100796.47;4989815;28;20069;-68
2021/09/11 06:46:32;;;;;;;22.00;6.97;;;;;;;20.15;100.00;100797.22;4988856;28;20038;-68
2021/09/11 06:48:57;;;;;;;21.20;6.75;;;;;;;20.23;100.00;100806.13;4956967;28;20105;-70
2021/09/11 06:51:22;;;;;;;21.13;7.22;;;;;;;20.25;100.00;100801.00;4987772;28;20492;-69
2021/09/11 06:53:49;;;;;;;26.05;8.00;;;;;;;20.31;100.00;100791.13;4971144;28;20042;-70
2021/09/11 06:56:15;;;;;;;22.08;7.15;;;;;;;20.30;100.00;100793.13;4974002;28;20030;-69
2021/09/11 06:58:41;;;;;;;21.48;7.70;;;;;;;20.34;100.00;100799.28;4984121;28;20045;-68
2021/09/11 07:01:06;;;;;;;27.98;7.93;;;;;;;20.43;100.00;100799.53;4984404;28;20034;-68
2021/09/11 07:03:32;;;;;;;23.55;7.50;;;;;;;20.39;100.00;100800.78;4989901;28;20487;-68
2021/09/11 07:05:58;;;;;;;19.17;6.97;;;;;;;20.42;100.00;100803.44;4990825;28;20029;-72
2021/09/11 07:08:24;;;;;;;24.02;8.45;;;;;;;20.45;100.00;100802.63;4990569;28;20034;-69
2021/09/11 07:10:49;;;;;;;22.95;6.75;;;;;;;20.43;100.00;100815.16;4989067;28;20049;-68
2021/09/11 07:13:15;;;;;;;22.13;7.28;;;;;;;20.46;100.00;100814.34;4988026;28;20034;-69
2021/09/11 07:15:42;;;;;;;20.00;7.22;;;;;;;20.45;100.00;100816.31;4972708;28;20479;-68
2021/09/11 07:18:08;;;;;;;28.45;8.25;;;;;;;20.46;100.00;100819.81;4981898;28;20041;-69
2021/09/11 07:20:33;;;;;;;24.90;7.93;;;;;;;20.45;100.00;100818.25;4982440;28;20109;-69
2021/09/11 07:22:59;;;;;;;25.00;8.05;;;;;;;20.49;100.00;100816.22;4958344;28;20026;-68
2021/09/11 07:25:24;;;;;;;24.52;7.82;;;;;;;20.54;100.00;100816.53;4957581;28;20064;-69
2021/09/11 07:27:50;;;;;;;21.40;7.55;;;;;;;20.52;100.00;100826.34;4985814;28;20519;-68
2021/09/11 07:30:15;;;;;;;26.48;8.38;;;;;;;20.51;100.00;100827.53;4991302;28;20018;-68
2021/09/11 07:32:41;;;;;;;21.17;7.75;;;;;;;20.51;100.00;100824.81;4986102;28;20471;-68
2021/09/11 07:35:06;;;;;;;23.50;8.73;;;;;;;20.49;100.00;100824.44;4985122;28;20553;-69
2021/09/11 07:37:32;;;;;;;24.92;7.10;;;;;;;20.53;100.00;100822.41;4978102;28;20049;-70
2021/09/11 07:39:57;;;;;;;22.80;7.93;;;;;;;20.59;100.00;100820.75;4980604;28;20034;-71
2021/09/11 07:42:23;;;;;;;20.65;7.35;;;;;;;20.54;100.00;100818.47;4984549;28;20022;-69
2021/09/11 07:44:48;;;;;;;22.23;8.10;;;;;;;20.57;100.00;100817.66;4987267;28;20049;-71
2021/09/11 07:47:17;;;;;;;32.15;8.30;;;;;;;20.59;100.00;100815.28;4981746;28;20038;-71
2021/09/11 07:49:42;;;;;;;20.67;8.18;;;;;;;20.61;100.00;100812.91;4987100;28;20026;-68
2021/09/11 07:52:08;;;;;;;20.45;7.80;;;;;;;20.72;100.00;100815.41;4990238;28;20390;-69
2021/09/11 07:54:33;;;;;;;21.00;7.57;;;;;;;20.70;100.00;100815.84;4973180;28;20037;-69
2021/09/11 07:56:58;;;;;;;22.77;8.27;;;;;;;20.80;100.00;100825.84;4984382;28;20552;-69
2021/09/11 07:59:24;;;;;;;26.08;8.48;;;;;;;20.86;100.00;100820.63;4989077;28;20538;-68
2021/09/11 08:01:49;;;;;;;25.33;7.40;;;;;;;20.90;100.00;100824.09;4984846;28;20398;-68
2021/09/11 08:04:15;;;;;;;23.00;8.00;;;;;;;20.99;100.00;100830.56;4990017;28;20042;-68
2021/09/11 08:06:40;;;;;;;21.67;7.68;;;;;;;21.06;100.00;100829.69;4989170;28;20038;-68
2021/09/11 08:09:06;;;;;;;23.13;7.93;;;;;;;21.10;100.00;100835.88;4986159;28;20038;-70
2021/09/11 08:11:31;;;;;;;21.75;7.53;;;;;;;21.14;100.00;100826.34;4990354;28;20057;-69
2021/09/11 08:13:57;;;;;;;19.20;7.53;;;;;;;21.13;100.00;100830.31;4990480;28;20037;-68
2021/09/11 08:16:22;;;;;;;19.08;7.20;;;;;;;21.20;100.00;100824.66;4991183;28;20041;-68
2021/09/11 08:18:48;;;;;;;23.38;7.80;;;;;;;21.28;100.00;100836.25;4982745;28;20038;-69
2021/09/11 08:21:14;;;;;;;21.20;6.95;;;;;;;21.28;100.00;100839.78;4989289;28;20030;-71
2021/09/11 08:23:41;;;;;;;22.77;7.00;;;;;;;21.28;100.00;100842.53;4990168;28;20037;-69
2021/09/11 08:26:08;;;;;;;23.67;7.40;;;;;;;21.22;100.00;100835.97;4988290;28;20490;-69
2021/09/11 08:28:33;;;;;;;17.48;7.03;;;;;;;21.21;100.00;100844.63;4979875;28;20042;-68
2021/09/11 08:30:59;;;;;;;17.60;7.00;;;;;;;21.20;100.00;100838.38;4990943;28;20038;-68
2021/09/11 08:33:24;;;;;;;16.98;6.93;;;;;;;21.21;100.00;100837.19;4980040;28;20023;-70
2021/09/11 08:35:50;;;;;;;18.17;6.38;;;;;;;21.15;100.00;100840.84;4982963;28;20572;-68
2021/09/11 08:38:15;;;;;;;18.02;7.30;;;;;;;21.23;100.00;100851.25;4969855;28;20053;-68
2021/09/11 08:40:41;;;;;;;18.00;7.03;;;;;;;21.22;100.00;100838.72;4989267;28;20455;-69
2021/09/11 08:43:07;;;;;;;18.60;7.28;;;;;;;21.22;100.00;100841.47;4986037;28;20137;-72
2021/09/11 08:45:33;;;;;;;17.95;7.35;;;;;;;21.25;100.00;100848.06;4978430;28;20036;-69
2021/09/11 08:48:00;;;;;;;16.88;6.95;;;;;;;21.32;100.00;100854.19;4988695;28;20042;-70
2021/09/11 08:50:26;;;;;;;20.10;7.85;;;;;;;21.39;100.00;100855.97;4971252;28;20034;-69
2021/09/11 08:52:52;;;;;;;17.15;6.72;;;;;;;21.45;100.00;100852.34;4968367;28;20945;-69
2021/09/11 08:55:19;;;;;;;18.58;6.78;;;;;;;21.50;100.00;100857.31;4988833;28;20072;-70
2021/09/11 08:57:58;;;;;;;17.98;6.85;;;;;;;21.57;100.00;100859.13;4972230;28;20050;-71
2021/09/11 09:00:38;;;;;;;18.80;6.78;;;;;;;21.64;100.00;100853.50;4982408;28;20053;-69
2021/09/11 09:03:30;;;;;;;19.15;7.75;;;;;;;21.69;100.00;100857.72;4952600;28;20113;-70
2021/09/11 09:06:27;;;;;;;19.10;6.88;;;;;;;21.74;100.00;100862.72;4983905;28;20053;-71
2021/09/11 09:09:03;;;;;;;20.27;7.18;;;;;;;21.82;100.00;100862.13;4984339;28;20050;-69
2021/09/11 09:11:31;;;;;;;16.25;6.80;;;;;;;21.81;100.00;100866.09;4965680;28;20036;-69
2021/09/11 09:13:59;;;;;;;18.55;7.63;;;;;;;21.76;100.00;100871.25;4989592;28;20026;-69
2021/09/11 09:16:28;;;;;;;22.95;7.53;;;;;;;21.72;100.00;100865.84;4971293;28;20038;-69
2021/09/11 09:18:54;;;;;;;19.30;7.35;;;;;;;21.69;100.00;100868.69;4981715;28;20574;-69
2021/09/11 09:21:29;;;;;;;14.35;6.35;;;;;;;21.62;100.00;100866.88;4987959;28;20061;-70
2021/09/11 09:24:00;;;;;;;24.88;8.80;;;;;;;21.60;100.00;100871.22;4982308;28;20756;-68
2021/09/11 09:26:26;;;;;;;;;;;;;;;21.38;100.00;100874.41;4982703;28;20078;-69
2021/09/11 09:29:04;;;;;;;27.48;7.97;;;;;;;21.49;100.00;100874.97;4972548;28;19996;-69
2021/09/11 09:31:30;;;;;;;22.67;8.35;;;;;;;21.42;100.00;100885.31;4987827;28;20030;-69
2021/09/11 09:33:55;;;;;;;22.90;8.45;;;;;;;21.39;100.00;100880.66;4980712;28;20088;-69
2021/09/11 09:36:21;;;;;;;26.73;8.65;;;;;;;21.35;100.00;100872.50;4990514;28;20042;-70
2021/09/11 09:38:57;;;;;;;25.33;8.98;;;;;;;21.29;100.00;100873.44;4987453;28;20023;-68
2021/09/11 09:41:23;;;;;;;23.95;7.97;;;;;;;21.32;100.00;100875.31;4989370;28;20606;-68
2021/09/11 09:43:48;;;;;;;23.85;8.07;;;;;;;21.43;100.00;100873.91;4966693;28;20117;-68
2021/09/11 09:46:16;;;;;;;21.60;7.85;;;;;;;21.58;100.00;100870.88;4988003;28;20489;-69
2021/09/11 09:48:44;;;;;;;27.60;8.68;;;;;;;21.68;100.00;100870.63;4985800;28;20045;-69
2021/09/11 09:51:13;;;;;;;24.23;8.40;;;;;;;21.81;100.00;100879.81;4990141;28;20069;-71
2021/09/11 09:53:42;;;;;;;30.58;9.15;;;;;;;21.86;100.00;100867.53;4987170;28;20113;-69
2021/09/11 09:56:08;;;;;;;22.38;7.50;;;;;;;21.89;100.00;100863.97;4988186;28;20062;-69
2021/09/11 09:58:34;;;;;;;25.77;8.40;;;;;;;21.96;100.00;100870.06;4965924;28;20038;-69
2021/09/11 10:01:01;;;;;;;22.60;7.18;;;;;;;21.99;100.00;100873.94;4987623;28;20061;-69
2021/09/11 10:03:27;;;;;;;21.77;7.65;;;;;;;21.98;100.00;100866.88;4989902;28;20050;-69
2021/09/11 10:06:02;;;;;;;23.23;7.25;;;;;;;21.93;100.00;100875.63;4991451;28;20081;-72
2021/09/11 10:08:28;;;;;;;23.80;8.65;;;;;;;21.90;100.00;100873.72;5018243;22;20438;-66
2021/09/11 10:10:54;;;;;;;22.90;7.43;;;;;;;21.87;100.00;100871.84;5031025;28;20959;-67
2021/09/11 10:13:23;;;;;;;22.73;8.85;;;;;;;21.86;100.00;100876.53;5027366;28;20033;-67
2021/09/11 10:16:06;;;;;;;21.52;7.95;;;;;;;21.79;100.00;100868.47;5029919;28;20033;-67
2021/09/11 10:18:34;;;;;;;23.67;7.55;;;;;;;21.78;100.00;100868.84;5008138;28;20036;-68
2021/09/11 10:21:28;;;;;;;23.67;8.30;;;;;;;21.79;100.00;100862.97;5011772;28;20041;-68
2021/09/11 10:23:55;;;;;;;20.83;7.85;;;;;;;21.83;100.00;100868.41;5006917;28;20105;-66
2021/09/11 10:26:47;;;;;;;21.35;7.70;;;;;;;21.87;100.00;100877.31;4999304;28;20113;-67
2021/09/11 10:29:31;;;;;;;23.63;8.43;;;;;;;21.90;100.00;100866.28;4995742;28;20022;-67
2021/09/11 10:31:57;;;;;;;24.83;7.78;;;;;;;21.97;100.00;100865.34;4989368;28;20072;-67
2021/09/11 10:34:50;;;;;;;20.48;8.10;;;;;;;22.03;100.00;100860.88;5004546;28;20022;-67
2021/09/11 10:37:42;;;;;;;18.20;7.07;;;;;;;22.15;100.00;100868.44;5006537;28;20042;-67
2021/09/11 10:40:26;;;;;;;21.85;8.07;;;;;;;22.38;100.00;100862.78;5009620;28;20038;-67
2021/09/11 10:43:04;;;;;;;19.65;7.93;;;;;;;22.65;100.00;100852.31;5004867;28;20513;-66
2021/09/11 10:45:41;;;;;;;22.40;8.35;;;;;;;22.92;100.00;100858.25;5012480;28;20495;-66
2021/09/11 10:48:30;;;;;;;20.63;7.47;;;;;;;23.11;100.00;100857.31;5006820;28;20120;-67
2021/09/11 10:50:55;;;;;;;19.90;7.75;;;;;;;23.22;100.00;100855.06;5011628;28;20034;-68
2021/09/11 10:53:22;;;;;;;17.95;7.05;;;;;;;23.42;100.00;100857.66;5011368;28;20062;-67
2021/09/11 10:55:48;;;;;;;14.07;5.95;;;;;;;23.57;100.00;100856.03;5006166;28;20030;-67
2021/09/11 10:58:26;;;;;;;13.82;6.75;;;;;;;23.58;98.80;100862.28;4974440;28;20121;-67
2021/09/11 11:00:59;;;;;;;15.73;7.28;;;;;;;23.54;97.16;100865.16;5011683;28;20038;-67
2021/09/11 11:03:26;;;;;;;16.70;6.53;;;;;;;23.39;97.62;100852.25;5011869;28;20056;-67
2021/09/11 11:06:03;;;;;;;13.02;6.57;;;;;;;23.17;99.55;100860.34;5006967;28;20606;-67
2021/09/11 11:08:30;;;;;;;12.18;5.93;;;;;;;23.21;99.28;100858.22;5006928;28;20038;-67
2021/09/11 11:10:55;;;;;;;14.07;5.80;;;;;;;23.15;99.32;100858.00;4994010;28;20058;-67
2021/09/11 11:13:24;;;;;;;12.18;6.00;;;;;;;23.20;97.62;100857.47;5009484;28;20029;-67